Terminal Aerodrome Forecast
Issued by NWS

Home | Current Version | Previous Version | Text Only | Print | Product List | Glossary On
Versions: 1 2 3 4 5 6 7 8 9 10 11 12 13 14 15 16 17 18
000
FTUS45 KSLC 201120
TAFENV
TAF
KENV 201120Z 2012/2112 VRB06KT P6SM SKC
     FM201900 15010KT P6SM SCT090
     FM202200 22012G20KT P6SM BKN090
     FM210000 31014G20KT P6SM VCSH BKN060 OVC090
     FM211000 33011G18KT P6SM -SHRA BKN035 OVC060=

USA.gov is the U.S. government's official web portal to all federal, state and local government web resources and services.